createdAt,value
2022-08-04T00:01:19.840Z,99457.25
2022-08-04T00:03:55.563Z,99462.19
2022-08-04T00:06:32.906Z,99459.31
2022-08-04T00:09:02.816Z,99464.00
2022-08-04T00:11:30.919Z,99467.50
2022-08-04T00:14:03.051Z,99463.66
2022-08-04T00:16:34.909Z,99459.44
2022-08-04T00:19:10.105Z,99453.81
2022-08-04T00:21:38.746Z,99454.78
2022-08-04T00:24:10.481Z,99451.66
2022-08-04T00:26:38.260Z,99451.66
2022-08-04T00:29:05.448Z,99462.97
2022-08-04T00:31:33.304Z,99456.00
2022-08-04T00:34:19.285Z,99459.00
2022-08-04T00:36:46.150Z,99455.91
2022-08-04T00:39:14.252Z,99461.56
2022-08-04T00:41:56.676Z,99461.69
2022-08-04T00:44:42.579Z,99457.44
2022-08-04T00:47:28.214Z,99451.22
2022-08-04T00:49:55.043Z,99459.03
2022-08-04T00:52:31.735Z,99455.28
2022-08-04T00:55:15.264Z,99455.78
2022-08-04T00:58:00.970Z,99458.38
2022-08-04T01:00:29.270Z,99460.31
2022-08-04T01:03:13.139Z,99462.69
2022-08-04T01:05:43.089Z,99461.75
2022-08-04T01:08:12.832Z,99457.78
2022-08-04T01:10:58.808Z,99460.56
2022-08-04T01:13:37.659Z,99453.72
2022-08-04T01:16:08.263Z,99454.78
2022-08-04T01:18:50.251Z,99453.59
2022-08-04T01:21:17.067Z,99459.69
2022-08-04T01:23:59.938Z,99453.59
2022-08-04T01:26:57.457Z,99451.66
2022-08-04T01:29:46.630Z,99449.34
2022-08-04T01:32:19.747Z,99447.69
2022-08-04T01:34:51.304Z,99449.63
2022-08-04T01:37:36.988Z,99444.22
2022-08-04T01:40:05.841Z,99441.53
2022-08-04T01:42:33.831Z,99445.63
2022-08-04T01:45:02.587Z,99449.47
2022-08-04T01:47:30.139Z,99443.19
2022-08-04T01:50:01.988Z,99442.13
2022-08-04T01:52:28.868Z,99439.00
2022-08-04T01:54:56.412Z,99447.28
2022-08-04T01:57:37.831Z,99446.44
2022-08-04T02:00:06.321Z,99444.38
2022-08-04T02:02:33.603Z,99439.94
2022-08-04T02:05:00.487Z,99442.72
2022-08-04T02:07:47.490Z,99441.03
2022-08-04T02:10:17.467Z,99435.97
2022-08-04T02:12:44.270Z,99437.53
2022-08-04T02:15:20.919Z,99434.63
2022-08-04T02:17:57.000Z,99441.09
2022-08-04T02:20:25.637Z,99428.59
2022-08-04T02:22:59.638Z,99436.97
2022-08-04T02:25:27.676Z,99436.97
2022-08-04T02:28:13.203Z,99433.00
2022-08-04T02:30:43.064Z,99431.31
2022-08-04T02:33:12.137Z,99429.88
2022-08-04T02:35:39.018Z,99430.81
2022-08-04T02:38:27.612Z,99432.94
2022-08-04T02:40:56.560Z,99418.94
2022-08-04T02:43:51.981Z,99424.47
2022-08-04T02:46:18.204Z,99420.84
2022-08-04T02:48:46.220Z,99427.88
2022-08-04T02:51:14.744Z,99427.28
2022-08-04T02:53:41.994Z,99433.94
2022-08-04T02:56:09.509Z,99422.09
2022-08-04T02:58:37.099Z,99424.31
2022-08-04T03:01:04.419Z,99422.88
2022-08-04T03:03:36.253Z,99429.22
2022-08-04T03:06:19.402Z,99425.25
2022-08-04T03:08:49.436Z,99419.97
2022-08-04T03:11:28.400Z,99419.34
2022-08-04T03:14:09.559Z,99425.34
2022-08-04T03:16:43.283Z,99424.72
2022-08-04T03:19:16.071Z,99425.78
2022-08-04T03:22:00.914Z,99420.72
2022-08-04T03:24:48.230Z,99427.31
2022-08-04T03:27:15.052Z,99418.59
2022-08-04T03:30:00.784Z,99430.69
2022-08-04T03:32:46.561Z,99429.22
2022-08-04T03:35:22.967Z,99429.00
2022-08-04T03:37:50.034Z,99431.75
2022-08-04T03:40:22.953Z,99436.44
2022-08-04T03:43:57.999Z,99435.81
2022-08-04T03:46:25.388Z,99440.25
2022-08-04T03:48:52.225Z,99438.78
2022-08-04T03:51:36.583Z,99426.69
2022-08-04T03:54:21.645Z,99435.59
2022-08-04T03:57:06.522Z,99432.38
2022-08-04T03:59:56.444Z,99440.66
2022-08-04T04:02:42.301Z,99424.72
2022-08-04T04:05:37.354Z,99435.72
2022-08-04T04:08:21.892Z,99441.16
2022-08-04T04:10:56.820Z,99440.09
2022-08-04T04:13:39.218Z,99448.75
2022-08-04T04:16:06.032Z,99438.94
2022-08-04T04:18:51.593Z,99442.75
2022-08-04T04:21:18.407Z,99446.03
2022-08-04T04:24:02.297Z,99437.31
2022-08-04T04:26:38.025Z,99444.41
2022-08-04T04:29:23.343Z,99443.53
2022-08-04T04:32:04.498Z,99448.09
2022-08-04T04:34:35.308Z,99449.97
2022-08-04T04:37:14.213Z,99452.31
2022-08-04T04:39:49.940Z,99449.56
2022-08-04T04:42:25.736Z,99449.34
2022-08-04T04:45:03.063Z,99453.81
2022-08-04T04:47:43.094Z,99452.63
2022-08-04T04:50:38.586Z,99455.44
2022-08-04T04:53:20.599Z,99464.69
2022-08-04T04:55:51.105Z,99466.44
2022-08-04T04:58:20.308Z,99467.75
2022-08-04T05:00:47.105Z,99463.13
2022-08-04T05:03:26.463Z,99461.94
2022-08-04T05:06:07.553Z,99469.84
2022-08-04T05:08:45.048Z,99462.25
2022-08-04T05:11:34.107Z,99474.94
2022-08-04T05:14:34.917Z,99475.66
2022-08-04T05:17:15.416Z,99476.28
2022-08-04T05:20:01.061Z,99477.94
2022-08-04T05:22:31.277Z,99481.66
2022-08-04T05:25:12.332Z,99481.63
2022-08-04T05:27:41.264Z,99489.47
2022-08-04T05:30:08.965Z,99487.31
2022-08-04T05:32:40.801Z,99483.44
2022-08-04T05:35:09.932Z,99490.47
2022-08-04T05:37:38.248Z,99490.06
2022-08-04T05:40:06.428Z,99485.41
2022-08-04T05:42:35.766Z,99491.41
2022-08-04T05:45:03.231Z,99490.38
2022-08-04T05:47:31.188Z,99486.28
2022-08-04T05:50:01.460Z,99491.47
2022-08-04T05:52:29.233Z,99486.03
2022-08-04T05:54:57.173Z,99485.00
2022-08-04T05:57:24.802Z,99486.97
2022-08-04T05:59:52.130Z,99490.97
2022-08-04T06:02:19.595Z,99495.75
2022-08-04T06:04:48.821Z,99489.81
2022-08-04T06:07:16.066Z,99493.50
2022-08-04T06:09:42.960Z,99484.44
2022-08-04T06:12:18.246Z,99491.75
2022-08-04T06:14:47.123Z,99489.00
2022-08-04T06:18:33.232Z,99486.03
2022-08-04T06:20:18.045Z,99485.63
2022-08-04T06:22:53.743Z,99480.22
2022-08-04T06:25:22.378Z,99479.69
2022-08-04T06:27:50.427Z,99485.78
2022-08-04T06:30:17.949Z,99501.22
2022-08-04T06:32:45.675Z,99500.66
2022-08-04T06:35:14.706Z,99492.06
2022-08-04T06:37:44.386Z,99487.91
2022-08-04T06:40:30.692Z,99487.59
2022-08-04T06:43:00.723Z,99497.06
2022-08-04T06:45:27.741Z,99493.75
2022-08-04T06:47:55.427Z,99490.56
2022-08-04T06:51:27.574Z,99486.84
2022-08-04T06:53:09.912Z,99491.72
2022-08-04T06:55:37.358Z,99496.88
2022-08-04T06:58:04.984Z,99502.88
2022-08-04T07:00:32.182Z,99494.09
2022-08-04T07:02:59.369Z,99491.06
2022-08-04T07:05:26.597Z,99493.50
2022-08-04T07:07:58.054Z,99496.53
2022-08-04T07:10:29.402Z,99495.94
2022-08-04T07:13:00.114Z,99489.50
2022-08-04T07:15:27.347Z,99493.50
2022-08-04T07:17:55.070Z,99488.81
2022-08-04T07:20:34.593Z,99490.78
2022-08-04T07:23:02.117Z,99480.25
2022-08-04T07:25:57.304Z,99480.78
2022-08-04T07:28:15.749Z,99479.56
2022-08-04T07:30:43.833Z,99486.75
2022-08-04T07:33:11.113Z,99489.69
2022-08-04T07:36:05.174Z,99484.59
2022-08-04T07:38:27.472Z,99482.81
2022-08-04T07:40:55.393Z,99487.34
2022-08-04T07:43:22.720Z,99487.31
2022-08-04T07:45:49.642Z,99482.31
2022-08-04T07:48:16.737Z,99484.41
2022-08-04T07:50:44.414Z,99479.94
2022-08-04T07:53:55.224Z,99478.88
2022-08-04T07:56:00.326Z,99475.91
2022-08-04T07:58:29.900Z,99470.28
2022-08-04T08:00:57.933Z,99464.88
2022-08-04T08:03:25.451Z,99469.75
2022-08-04T08:06:16.594Z,99462.84
2022-08-04T08:08:39.858Z,99450.78
2022-08-04T08:11:07.009Z,99459.06
2022-08-04T08:13:36.478Z,99471.19
2022-08-04T08:16:03.581Z,99460.25
2022-08-04T08:18:30.898Z,99457.09
2022-08-04T08:20:58.167Z,99452.28
2022-08-04T08:23:25.913Z,99461.34
2022-08-04T08:25:52.816Z,99459.63
2022-08-04T08:28:19.821Z,99455.47
2022-08-04T08:30:52.713Z,99454.16
2022-08-04T08:33:20.612Z,99455.06
2022-08-04T08:35:54.477Z,99458.59
2022-08-04T08:38:27.368Z,99449.34
2022-08-04T08:40:58.901Z,99447.63
2022-08-04T08:44:00.293Z,99441.91
2022-08-04T08:46:49.058Z,99450.69
2022-08-04T08:50:00.702Z,99444.22
2022-08-04T08:53:01.409Z,99445.25
2022-08-04T08:55:20.938Z,99445.28
2022-08-04T08:58:06.541Z,99436.28
2022-08-04T09:00:33.371Z,99433.78
2022-08-04T09:03:16.535Z,99431.34
2022-08-04T09:05:51.226Z,99435.91
2022-08-04T09:08:23.922Z,99435.97
2022-08-04T09:10:53.983Z,99436.25
2022-08-04T09:13:29.829Z,99427.59
2022-08-04T09:15:56.633Z,99431.50
2022-08-04T09:18:36.521Z,99425.69
2022-08-04T09:21:11.669Z,99423.34
2022-08-04T09:23:41.233Z,99429.81
2022-08-04T09:26:30.463Z,99431.63
2022-08-04T09:29:08.347Z,99431.38
2022-08-04T09:31:49.125Z,99427.72
2022-08-04T09:34:34.765Z,99417.16
2022-08-04T09:37:08.354Z,99428.00
2022-08-04T09:40:02.496Z,99420.06
2022-08-04T09:42:45.143Z,99417.22
2022-08-04T09:45:42.207Z,99420.88
2022-08-04T09:48:13.782Z,99424.41
2022-08-04T09:50:41.674Z,99423.31
2022-08-04T09:53:36.525Z,99420.41
2022-08-04T09:56:09.216Z,99421.34
2022-08-04T09:58:44.194Z,99415.50
2022-08-04T10:01:21.065Z,99407.81
2022-08-04T10:03:51.943Z,99414.63
2022-08-04T10:06:27.989Z,99417.72
2022-08-04T10:09:13.317Z,99419.38
2022-08-04T10:11:59.177Z,99405.25
2022-08-04T10:14:51.352Z,99399.31
2022-08-04T10:17:18.165Z,99407.19
2022-08-04T10:19:45.102Z,99406.09
2022-08-04T10:22:28.435Z,99395.81
2022-08-04T10:25:05.533Z,99392.97
2022-08-04T10:27:54.300Z,99394.63
2022-08-04T10:30:22.162Z,99398.97
2022-08-04T10:32:51.766Z,99392.25
2022-08-04T10:35:20.994Z,99395.53
2022-08-04T10:38:01.519Z,99401.41
2022-08-04T10:40:29.001Z,99397.03
2022-08-04T10:43:00.399Z,99394.19
2022-08-04T10:45:32.920Z,99396.31
2022-08-04T10:48:07.008Z,99377.97
2022-08-04T10:50:40.420Z,99380.81
2022-08-04T10:53:11.782Z,99381.31
2022-08-04T10:56:06.952Z,99378.88
2022-08-04T10:58:48.487Z,99373.50
2022-08-04T11:02:01.086Z,99367.59
2022-08-04T11:04:09.930Z,99367.88
2022-08-04T11:06:37.469Z,99372.34
2022-08-04T11:09:05.153Z,99359.84
2022-08-04T11:12:00.890Z,99371.22
2022-08-04T11:14:33.289Z,99376.41
2022-08-04T11:17:18.991Z,99364.19
2022-08-04T11:20:12.386Z,99358.91
2022-08-04T11:23:01.462Z,99364.41
2022-08-04T11:25:32.533Z,99357.38
2022-08-04T11:28:13.717Z,99358.13
2022-08-04T11:30:47.219Z,99360.34
2022-08-04T11:33:14.047Z,99371.31
2022-08-04T11:35:52.308Z,99362.38
2022-08-04T11:38:31.908Z,99353.81
2022-08-04T11:41:03.388Z,99357.94
2022-08-04T11:44:00.846Z,99362.78
2022-08-04T11:46:31.974Z,99360.91
2022-08-04T11:49:03.207Z,99351.03
2022-08-04T11:51:31.822Z,99365.41
2022-08-04T11:53:59.294Z,99362.66
2022-08-04T11:56:35.621Z,99366.91
2022-08-04T11:59:05.340Z,99359.34
2022-08-04T12:01:35.912Z,99367.03
2022-08-04T12:04:04.318Z,99362.81
2022-08-04T12:07:15.108Z,99352.78
2022-08-04T12:10:14.377Z,99340.81
2022-08-04T12:12:49.012Z,99352.91
2022-08-04T12:15:22.322Z,99344.81
2022-08-04T12:17:54.281Z,99340.25
2022-08-04T12:20:38.244Z,99355.69
2022-08-04T12:23:11.993Z,99347.69
2022-08-04T12:25:44.940Z,99347.09
2022-08-04T12:28:15.305Z,99341.94
2022-08-04T12:30:57.246Z,99345.09
2022-08-04T12:34:02.878Z,99340.91
2022-08-04T12:36:35.906Z,99344.34
2022-08-04T12:39:04.841Z,99346.22
2022-08-04T12:41:38.895Z,99345.50
2022-08-04T12:44:07.496Z,99347.59
2022-08-04T12:46:54.954Z,99337.44
2022-08-04T12:49:43.841Z,99337.09
2022-08-04T12:52:20.295Z,99329.84
2022-08-04T12:54:51.624Z,99332.31
2022-08-04T12:57:18.552Z,99336.28
2022-08-04T12:59:46.289Z,99326.72
2022-08-04T13:02:25.745Z,99332.97
2022-08-04T13:04:54.030Z,99327.94
2022-08-04T13:07:23.700Z,99328.28
2022-08-04T13:09:51.329Z,99329.78
2022-08-04T13:12:27.405Z,99321.44
2022-08-04T13:15:08.902Z,99325.22
2022-08-04T13:18:03.195Z,99313.28
2022-08-04T13:20:31.609Z,99307.03
2022-08-04T13:23:04.349Z,99298.69
2022-08-04T13:26:43.479Z,99308.63
2022-08-04T13:28:26.515Z,99309.22
2022-08-04T13:30:55.292Z,99299.44
2022-08-04T13:33:27.898Z,99295.75
2022-08-04T13:35:56.746Z,99293.00
2022-08-04T13:38:24.416Z,99298.41
2022-08-04T13:40:52.057Z,99293.25
2022-08-04T13:44:16.803Z,99288.19
2022-08-04T13:46:27.165Z,99299.06
2022-08-04T13:49:31.267Z,99291.28
2022-08-04T13:51:58.233Z,99286.09
2022-08-04T13:54:42.365Z,99287.66
2022-08-04T13:57:31.066Z,99278.69
2022-08-04T14:00:00.033Z,99279.94
2022-08-04T14:02:43.489Z,99275.38
2022-08-04T14:05:27.054Z,99275.56
2022-08-04T14:08:07.395Z,99267.22
2022-08-04T14:10:36.068Z,99276.28
2022-08-04T14:13:04.373Z,99269.75
2022-08-04T14:16:01.455Z,99271.06
2022-08-04T14:18:24.187Z,99269.72
2022-08-04T14:20:59.945Z,99265.13
2022-08-04T14:23:31.900Z,99263.63
2022-08-04T14:26:00.438Z,99253.69
2022-08-04T14:28:46.960Z,99248.63
2022-08-04T14:31:16.919Z,99240.44
2022-08-04T14:34:02.903Z,99243.84
2022-08-04T14:37:13.980Z,99237.38
2022-08-04T14:39:38.613Z,99235.63
2022-08-04T14:42:06.136Z,99227.97
2022-08-04T14:44:51.764Z,99229.03
2022-08-04T14:47:18.634Z,99226.00
2022-08-04T14:49:55.126Z,99232.38
2022-08-04T14:52:25.316Z,99221.31
2022-08-04T14:54:52.452Z,99224.78
2022-08-04T14:57:35.670Z,99227.81
2022-08-04T15:00:35.826Z,99239.03
2022-08-04T15:03:04.674Z,99234.66
2022-08-04T15:06:01.611Z,99231.16
2022-08-04T15:08:18.461Z,99225.28
2022-08-04T15:10:45.420Z,99226.50
2022-08-04T15:13:12.264Z,99222.50
2022-08-04T15:15:39.947Z,99225.38
2022-08-04T15:18:10.586Z,99214.31
2022-08-04T15:20:37.772Z,99217.22
2022-08-04T15:23:10.166Z,99212.50
2022-08-04T15:25:39.647Z,99221.63
2022-08-04T15:28:10.726Z,99218.66
2022-08-04T15:30:38.157Z,99207.63
2022-08-04T15:33:05.457Z,99215.00
2022-08-04T15:35:38.781Z,99218.72
2022-08-04T15:38:09.229Z,99217.44
2022-08-04T15:40:36.083Z,99220.28
2022-08-04T15:43:20.678Z,99217.56
2022-08-04T15:46:30.750Z,99206.06
2022-08-04T15:48:36.640Z,99212.81
2022-08-04T15:51:04.901Z,99214.66
2022-08-04T15:54:02.701Z,99214.72
2022-08-04T15:56:29.757Z,99207.00
2022-08-04T15:58:58.048Z,99203.59
2022-08-04T16:01:25.271Z,99201.16
2022-08-04T16:03:58.475Z,99192.56
2022-08-04T16:06:29.376Z,99203.09
2022-08-04T16:08:58.485Z,99185.56
2022-08-04T16:11:31.076Z,99194.09
2022-08-04T16:13:58.792Z,99182.59
2022-08-04T16:16:30.414Z,99185.53
2022-08-04T16:19:05.132Z,99178.69
2022-08-04T16:21:33.517Z,99178.59
2022-08-04T16:24:09.070Z,99169.69
2022-08-04T16:26:45.385Z,99171.31
2022-08-04T16:29:45.164Z,99165.09
2022-08-04T16:32:16.249Z,99161.97
2022-08-04T16:34:49.261Z,99170.63
2022-08-04T16:37:19.369Z,99163.00
2022-08-04T16:39:50.189Z,99160.38
2022-08-04T16:42:27.354Z,99161.28
2022-08-04T16:45:09.248Z,99158.03
2022-08-04T16:47:48.021Z,99159.69
2022-08-04T16:50:22.856Z,99157.38
2022-08-04T16:52:50.452Z,99152.75
2022-08-04T16:55:18.724Z,99156.84
2022-08-04T16:57:48.938Z,99152.66
2022-08-04T17:00:16.165Z,99143.47
2022-08-04T17:02:43.795Z,99141.19
2022-08-04T17:05:39.727Z,99139.13
2022-08-04T17:08:29.285Z,99134.56
2022-08-04T17:10:55.883Z,99129.66
2022-08-04T17:14:02.151Z,99122.75
2022-08-04T17:16:13.805Z,99125.47
2022-08-04T17:18:47.644Z,99123.31
2022-08-04T17:21:16.473Z,99117.53
2022-08-04T17:24:16.206Z,99122.00
2022-08-04T17:26:39.847Z,99113.41
2022-08-04T17:31:55.287Z,99116.19
2022-08-04T17:34:22.337Z,99122.13
2022-08-04T17:36:53.264Z,99120.16
2022-08-04T17:42:07.857Z,99115.47
2022-08-04T17:44:35.789Z,99123.06
2022-08-04T17:47:16.580Z,99124.19
2022-08-04T17:49:52.433Z,99120.72
2022-08-04T17:52:41.506Z,99125.44
2022-08-04T17:55:16.311Z,99120.28
2022-08-04T17:57:52.209Z,99125.84
2022-08-04T18:00:20.101Z,99124.00
2022-08-04T18:02:53.584Z,99123.44
2022-08-04T18:05:50.208Z,99129.53
2022-08-04T18:08:38.394Z,99122.16
2022-08-04T18:11:02.465Z,99123.59
2022-08-04T18:13:29.353Z,99126.03
2022-08-04T18:16:02.685Z,99123.53
2022-08-04T18:18:30.039Z,99117.88
2022-08-04T18:20:56.937Z,99125.06
2022-08-04T18:23:31.359Z,99126.53
2022-08-04T18:26:02.076Z,99133.22
2022-08-04T18:28:30.748Z,99135.97
2022-08-04T18:30:59.956Z,99129.53
2022-08-04T18:33:40.392Z,99133.72
2022-08-04T18:36:34.199Z,99139.03
2022-08-04T18:39:13.401Z,99135.94
2022-08-04T18:42:01.444Z,99139.59
2022-08-04T18:44:32.097Z,99143.50
2022-08-04T18:47:22.161Z,99145.81
2022-08-04T18:51:00.347Z,99142.97
2022-08-04T18:52:33.804Z,99151.03
2022-08-04T18:55:01.589Z,99147.59
2022-08-04T18:57:58.916Z,99148.56
2022-08-04T19:00:16.616Z,99147.31
2022-08-04T19:02:46.898Z,99154.13
2022-08-04T19:05:17.588Z,99154.00
2022-08-04T19:08:01.702Z,99159.69
2022-08-04T19:10:33.069Z,99158.09
2022-08-04T19:13:01.602Z,99157.34
2022-08-04T19:15:33.997Z,99161.38
2022-08-04T19:18:02.256Z,99167.09
2022-08-04T19:20:29.619Z,99165.19
2022-08-04T19:24:26.897Z,99168.69
2022-08-04T19:26:02.939Z,99173.78
2022-08-04T19:28:34.407Z,99171.97
2022-08-04T19:31:03.633Z,99176.06
2022-08-04T19:33:58.128Z,99179.25
2022-08-04T19:36:17.549Z,99175.16
2022-08-04T19:38:44.466Z,99183.91
2022-08-04T19:41:14.617Z,99185.09
2022-08-04T19:43:43.555Z,99174.22
2022-08-04T19:46:12.075Z,99179.88
2022-08-04T19:48:39.744Z,99178.00
2022-08-04T19:51:07.797Z,99179.72
2022-08-04T19:53:37.944Z,99182.56
2022-08-04T19:56:09.983Z,99177.56
2022-08-04T19:58:36.996Z,99182.88
2022-08-04T20:01:04.021Z,99187.72
2022-08-04T20:04:10.152Z,99174.34
2022-08-04T20:06:37.682Z,99184.94
2022-08-04T20:09:04.512Z,99182.22
2022-08-04T20:11:51.372Z,99183.09
2022-08-04T20:14:19.850Z,99185.09
2022-08-04T20:16:58.912Z,99190.75
2022-08-04T20:19:25.776Z,99198.03
2022-08-04T20:21:56.525Z,99204.72
2022-08-04T20:24:39.071Z,99206.16
2022-08-04T20:27:15.458Z,99207.34
2022-08-04T20:29:46.059Z,99197.88
2022-08-04T20:32:16.111Z,99196.00
2022-08-04T20:34:46.549Z,99197.13
2022-08-04T20:37:13.391Z,99200.19
2022-08-04T20:39:42.561Z,99211.69
2022-08-04T20:42:11.331Z,99212.78
2022-08-04T20:44:42.001Z,99213.66
2022-08-04T20:47:13.274Z,99231.28
2022-08-04T20:49:41.030Z,99221.28
2022-08-04T20:54:57.027Z,99233.03
2022-08-04T20:57:49.795Z,99231.09
2022-08-04T21:00:13.105Z,99225.81
2022-08-04T21:02:40.405Z,99234.19
2022-08-04T21:05:09.370Z,99244.28
2022-08-04T21:07:43.834Z,99235.94
2022-08-04T21:10:16.123Z,99234.28
2022-08-04T21:12:44.198Z,99227.03
2022-08-04T21:15:25.043Z,99235.09
2022-08-04T21:17:58.870Z,99232.63
2022-08-04T21:20:31.595Z,99242.34
2022-08-04T21:23:02.284Z,99237.34
2022-08-04T21:25:30.640Z,99234.00
2022-08-04T21:30:52.720Z,99245.69
2022-08-04T21:33:22.126Z,99249.56
2022-08-04T21:35:54.357Z,99252.63
2022-08-04T21:38:25.123Z,99246.25
2022-08-04T21:40:56.110Z,99250.72
2022-08-04T21:43:23.682Z,99247.38
2022-08-04T21:45:54.441Z,99255.19
2022-08-04T21:48:21.687Z,99245.41
2022-08-04T21:50:50.229Z,99257.38
2022-08-04T21:53:19.795Z,99251.81
2022-08-04T21:56:06.355Z,99250.13
2022-08-04T21:58:35.156Z,99249.84
2022-08-04T22:01:03.991Z,99254.16
2022-08-04T22:03:52.417Z,99249.47
2022-08-04T22:06:28.104Z,99242.41
2022-08-04T22:08:56.620Z,99245.09
2022-08-04T22:11:48.790Z,99246.56
2022-08-04T22:14:17.094Z,99248.09
2022-08-04T22:16:43.938Z,99238.53
2022-08-04T22:19:11.422Z,99237.28
2022-08-04T22:21:46.640Z,99236.34
2022-08-04T22:24:14.427Z,99237.28
2022-08-04T22:26:41.559Z,99234.75
2022-08-04T22:29:14.363Z,99236.53
2022-08-04T22:31:55.726Z,99241.59
2022-08-04T22:34:24.318Z,99232.13
2022-08-04T22:36:51.221Z,99239.16
2022-08-04T22:39:23.640Z,99242.75
2022-08-04T22:42:04.208Z,99232.72
2022-08-04T22:44:33.253Z,99234.41
2022-08-04T22:47:00.799Z,99230.25
2022-08-04T22:49:31.764Z,99223.00
2022-08-04T22:51:59.159Z,99211.03
2022-08-04T22:54:29.592Z,99217.16
2022-08-04T22:56:56.984Z,99214.13
2022-08-04T22:59:24.303Z,99209.63
2022-08-04T23:02:01.280Z,99211.06
2022-08-04T23:04:31.116Z,99204.59
2022-08-04T23:06:58.426Z,99207.00
2022-08-04T23:09:26.892Z,99202.31
2022-08-04T23:12:24.522Z,99199.22
2022-08-04T23:14:53.567Z,99198.16
2022-08-04T23:17:22.243Z,99189.53
2022-08-04T23:19:58.130Z,99198.19
2022-08-04T23:22:41.627Z,99194.00
2022-08-04T23:25:15.295Z,99190.97
2022-08-04T23:27:50.426Z,99198.47
2022-08-04T23:30:19.225Z,99201.84
2022-08-04T23:32:46.063Z,99200.44
2022-08-04T23:35:15.194Z,99199.59
2022-08-04T23:37:56.159Z,99203.22
2022-08-04T23:40:33.232Z,99202.38
2022-08-04T23:43:16.956Z,99202.38
2022-08-04T23:46:07.604Z,99199.06
2022-08-04T23:48:35.886Z,99190.09
2022-08-04T23:51:13.693Z,99184.75
2022-08-04T23:54:02.526Z,99187.56
2022-08-04T23:56:30.670Z,99184.22
2022-08-04T23:59:00.212Z,99195.38
